createdAt,value
2016-05-15T00:00:12.325Z,0
2016-05-15T00:00:37.733Z,0
2016-05-15T00:02:47.457Z,0
2016-05-15T00:03:28.274Z,0
2016-05-15T00:05:30.841Z,0
2016-05-15T00:06:02.701Z,0
2016-05-15T00:08:11.706Z,0
2016-05-15T00:08:24.364Z,0
2016-05-15T00:09:24.367Z,0
2016-05-15T00:10:27.433Z,0
2016-05-15T00:11:36.998Z,0
2016-05-15T00:12:24.423Z,0
2016-05-15T00:13:50.128Z,0
2016-05-15T00:14:37.193Z,0
2016-05-15T00:15:55.774Z,0
2016-05-15T00:17:21.608Z,0
2016-05-15T00:18:05.561Z,0
2016-05-15T00:18:34.595Z,0
2016-05-15T00:19:35.581Z,0
2016-05-15T00:20:53.537Z,0
2016-05-15T00:21:37.369Z,0
2016-05-15T00:23:36.984Z,0
2016-05-15T00:24:08.843Z,0
2016-05-15T00:24:49.658Z,0
2016-05-15T00:26:49.522Z,0
2016-05-15T00:27:21.241Z,0
2016-05-15T00:28:01.885Z,0
2016-05-15T00:30:04.624Z,0
2016-05-15T00:30:17.124Z,0
2016-05-15T00:31:17.471Z,0
2016-05-15T00:32:24.992Z,0
2016-05-15T00:33:19.945Z,0
2016-05-15T00:35:26.859Z,0
2016-05-15T00:36:26.893Z,0
2016-05-15T00:37:26.912Z,0
2016-05-15T00:38:26.742Z,0
2016-05-15T00:39:26.995Z,0
2016-05-15T00:40:26.951Z,0
2016-05-15T00:41:28.609Z,0
2016-05-15T00:42:29.690Z,0
2016-05-15T00:43:28.396Z,0
2016-05-15T00:44:27.009Z,0
2016-05-15T00:45:39.604Z,0
2016-05-15T00:46:27.029Z,0
2016-05-15T00:47:26.860Z,0
2016-05-15T00:48:26.925Z,0
2016-05-15T00:49:39.835Z,0
2016-05-15T00:50:27.212Z,0
2016-05-15T00:51:27.137Z,0
2016-05-15T00:52:26.983Z,0
2016-05-15T00:53:27.158Z,0
2016-05-15T00:54:27.300Z,0
2016-05-15T00:56:20.725Z,0
2016-05-15T00:56:59.056Z,0
2016-05-15T00:57:33.403Z,0
2016-05-15T00:59:46.236Z,0
2016-05-15T01:00:46.036Z,0
2016-05-15T01:01:52.507Z,0
2016-05-15T01:02:33.150Z,0
2016-05-15T01:03:52.560Z,0
2016-05-15T01:04:46.735Z,0
2016-05-15T01:05:59.424Z,0
2016-05-15T01:06:33.427Z,0
2016-05-15T01:08:04.868Z,0
2016-05-15T01:08:35.026Z,0
2016-05-15T01:09:33.482Z,0
2016-05-15T01:10:33.610Z,0
2016-05-15T01:11:33.629Z,0
2016-05-15T01:12:33.506Z,0
2016-05-15T01:13:33.540Z,0
2016-05-15T01:14:46.432Z,0
2016-05-15T01:15:33.545Z,0
2016-05-15T01:16:52.923Z,0
2016-05-15T01:17:33.597Z,0
2016-05-15T01:18:46.615Z,0
2016-05-15T01:19:33.603Z,0
2016-05-15T01:20:33.777Z,0
2016-05-15T01:21:35.093Z,0
2016-05-15T01:22:33.814Z,0
2016-05-15T01:23:46.614Z,0
2016-05-15T01:24:36.709Z,0
2016-05-15T01:25:46.525Z,0
2016-05-15T01:26:53.106Z,0
2016-05-15T01:27:35.327Z,0
2016-05-15T01:28:46.642Z,0
2016-05-15T01:29:36.973Z,0
2016-05-15T01:30:33.944Z,0
2016-05-15T01:31:33.807Z,0
2016-05-15T01:32:33.981Z,0
2016-05-15T01:33:35.500Z,0
2016-05-15T01:34:46.768Z,0
2016-05-15T01:35:34.021Z,0
2016-05-15T01:37:31.010Z,0
2016-05-15T01:37:43.604Z,0
2016-05-15T01:38:43.732Z,0
2016-05-15T01:39:45.094Z,0
2016-05-15T01:40:46.737Z,0
2016-05-15T01:41:46.615Z,0
2016-05-15T01:42:43.648Z,0
2016-05-15T01:43:56.510Z,0
2016-05-15T01:44:43.685Z,0
2016-05-15T01:46:09.500Z,0
2016-05-15T01:46:43.690Z,0
2016-05-15T01:48:09.521Z,0
2016-05-15T01:48:46.728Z,0
2016-05-15T01:49:56.637Z,0
2016-05-15T01:50:50.139Z,0
2016-05-15T01:52:09.595Z,0
2016-05-15T01:52:43.925Z,0
2016-05-15T01:54:15.226Z,0
2016-05-15T01:55:03.025Z,0
2016-05-15T01:55:46.997Z,0
2016-05-15T01:57:02.889Z,0
2016-05-15T01:57:56.642Z,0
2016-05-15T01:58:43.864Z,0
2016-05-15T02:00:09.725Z,0
2016-05-15T02:00:47.072Z,0
2016-05-15T02:02:09.481Z,0
2016-05-15T02:03:03.281Z,0
2016-05-15T02:03:44.518Z,0
2016-05-15T02:05:09.864Z,0
2016-05-15T02:05:44.101Z,0
2016-05-15T02:07:59.482Z,0
2016-05-15T02:08:59.406Z,0
2016-05-15T02:10:12.175Z,0
2016-05-15T02:11:00.849Z,0
2016-05-15T02:12:24.977Z,0
2016-05-15T02:12:59.120Z,0
2016-05-15T02:13:59.499Z,0
2016-05-15T02:14:59.485Z,0
2016-05-15T02:15:59.534Z,0
2016-05-15T02:17:11.960Z,0
2016-05-15T02:17:59.524Z,0
2016-05-15T02:19:19.745Z,0
2016-05-15T02:20:12.296Z,0
2016-05-15T02:20:59.751Z,0
2016-05-15T02:23:08.787Z,0
2016-05-15T02:24:21.837Z,0
2016-05-15T02:25:08.965Z,0
2016-05-15T02:26:08.967Z,0
2016-05-15T02:27:12.048Z,0
2016-05-15T02:28:21.739Z,0
2016-05-15T02:29:09.273Z,0
2016-05-15T02:30:34.856Z,0
2016-05-15T02:31:09.216Z,0
2016-05-15T02:32:09.233Z,0
2016-05-15T02:33:22.018Z,0
2016-05-15T02:34:09.489Z,0
2016-05-15T02:35:34.791Z,0
2016-05-15T02:36:22.041Z,0
2016-05-15T02:37:40.594Z,0
2016-05-15T02:38:09.297Z,0
2016-05-15T02:39:10.596Z,0
2016-05-15T02:40:28.383Z,0
2016-05-15T02:41:12.258Z,0
2016-05-15T02:42:40.560Z,0
2016-05-15T02:43:22.123Z,0
2016-05-15T02:44:09.126Z,0
2016-05-15T02:45:34.974Z,0
2016-05-15T02:46:09.334Z,0
2016-05-15T02:47:09.446Z,0
2016-05-15T02:48:09.495Z,0
2016-05-15T02:49:22.279Z,0
2016-05-15T02:50:09.501Z,0
2016-05-15T02:51:22.253Z,0
2016-05-15T02:52:10.944Z,0
2016-05-15T02:54:14.323Z,0
2016-05-15T02:55:14.108Z,0
2016-05-15T02:56:27.017Z,0
2016-05-15T02:57:14.286Z,0
2016-05-15T02:58:34.792Z,0
2016-05-15T02:59:17.385Z,0
2016-05-15T03:00:40.030Z,0
2016-05-15T03:01:27.108Z,0
2016-05-15T03:02:14.408Z,0
2016-05-15T03:03:14.411Z,0
2016-05-15T03:04:14.647Z,0
2016-05-15T03:05:14.385Z,0
2016-05-15T03:06:14.419Z,0
2016-05-15T03:07:14.547Z,0
2016-05-15T03:08:16.690Z,0
2016-05-15T03:09:15.927Z,0
2016-05-15T03:10:33.713Z,0
2016-05-15T03:11:27.244Z,0
2016-05-15T03:13:29.457Z,0
2016-05-15T03:14:29.662Z,0
2016-05-15T03:15:29.743Z,0
2016-05-15T03:16:29.558Z,0
2016-05-15T03:17:29.732Z,0
2016-05-15T03:18:31.141Z,0
2016-05-15T03:19:29.706Z,0
2016-05-15T03:20:42.460Z,0
2016-05-15T03:21:29.806Z,0
2016-05-15T03:22:42.511Z,0
2016-05-15T03:23:29.859Z,0
2016-05-15T03:24:44.064Z,5
2016-05-15T03:25:29.831Z,5
2016-05-15T03:27:26.804Z,5
2016-05-15T03:27:39.587Z,5
2016-05-15T03:28:39.497Z,10
2016-05-15T03:29:58.717Z,10
2016-05-15T03:30:39.392Z,10
2016-05-15T03:31:39.520Z,5
2016-05-15T03:32:39.553Z,5
2016-05-15T03:33:39.588Z,5
2016-05-15T03:34:39.653Z,5
2016-05-15T03:35:41.047Z,5
2016-05-15T03:36:39.471Z,5
2016-05-15T03:37:39.442Z,10
2016-05-15T03:38:39.649Z,10
2016-05-15T03:39:41.166Z,10
2016-05-15T03:40:40.919Z,10
2016-05-15T03:41:52.391Z,10
2016-05-15T03:42:52.456Z,10
2016-05-15T03:43:39.708Z,15
2016-05-15T03:44:39.460Z,15
2016-05-15T03:45:52.324Z,15
2016-05-15T03:47:30.109Z,20
2016-05-15T03:48:01.968Z,20
2016-05-15T03:48:43.066Z,20
2016-05-15T03:50:08.491Z,20
2016-05-15T03:51:02.040Z,20
2016-05-15T03:52:09.901Z,20
2016-05-15T03:53:08.515Z,20
2016-05-15T03:53:42.845Z,20
2016-05-15T03:55:45.288Z,20
2016-05-15T03:55:57.804Z,20
2016-05-15T03:56:57.822Z,25
2016-05-15T03:57:57.825Z,25
2016-05-15T03:58:57.920Z,25
2016-05-15T03:59:57.861Z,25
2016-05-15T04:01:16.879Z,25
2016-05-15T04:01:57.881Z,20
2016-05-15T04:03:23.572Z,20
2016-05-15T04:03:58.419Z,20
2016-05-15T04:06:07.564Z,20
2016-05-15T04:07:07.567Z,20
2016-05-15T04:09:01.135Z,20
2016-05-15T04:09:13.807Z,20
2016-05-15T04:11:23.313Z,25
2016-05-15T04:12:42.708Z,25
2016-05-15T04:13:42.570Z,25
2016-05-15T04:14:54.824Z,30
2016-05-15T04:15:49.341Z,30
2016-05-15T04:16:23.560Z,30
2016-05-15T04:17:54.832Z,30
2016-05-15T04:18:24.988Z,30
2016-05-15T04:19:24.302Z,25
2016-05-15T04:20:30.027Z,25
2016-05-15T04:21:23.637Z,30
2016-05-15T04:22:24.968Z,35
2016-05-15T04:23:23.548Z,35
2016-05-15T04:24:23.659Z,35
2016-05-15T04:25:23.757Z,45
2016-05-15T04:26:23.712Z,50
2016-05-15T04:27:42.951Z,50
2016-05-15T04:28:43.001Z,55
2016-05-15T04:29:55.067Z,60
2016-05-15T04:30:49.475Z,65
2016-05-15T04:31:23.803Z,65
2016-05-15T04:33:26.387Z,70
2016-05-15T04:33:39.031Z,70
2016-05-15T04:34:40.049Z,75
2016-05-15T04:35:51.880Z,80
2016-05-15T04:36:42.164Z,85
2016-05-15T04:37:51.853Z,85
2016-05-15T04:38:51.872Z,90
2016-05-15T04:39:39.000Z,95
2016-05-15T04:41:37.536Z,100
2016-05-15T04:42:47.164Z,100
2016-05-15T04:43:59.369Z,100
2016-05-15T04:45:01.122Z,100
2016-05-15T04:46:01.343Z,95
2016-05-15T04:47:02.910Z,85
2016-05-15T04:48:12.662Z,90
2016-05-15T04:48:59.962Z,95
2016-05-15T04:50:01.308Z,95
2016-05-15T04:51:01.342Z,90
2016-05-15T04:51:59.954Z,85
2016-05-15T04:53:19.035Z,75
2016-05-15T04:54:19.053Z,70
2016-05-15T04:56:28.371Z,70
2016-05-15T04:56:41.187Z,70
2016-05-15T04:57:41.064Z,70
2016-05-15T04:59:56.881Z,65
2016-05-15T05:01:09.853Z,65
2016-05-15T05:02:03.387Z,60
2016-05-15T05:03:46.628Z,60
2016-05-15T05:04:25.596Z,60
2016-05-15T05:04:58.817Z,55
2016-05-15T05:07:01.745Z,50
2016-05-15T05:07:39.919Z,50
2016-05-15T05:09:04.749Z,50
2016-05-15T05:09:43.097Z,50
2016-05-15T05:10:36.333Z,45
2016-05-15T05:12:40.635Z,50
2016-05-15T05:12:53.135Z,55
2016-05-15T05:13:53.169Z,60
2016-05-15T05:15:05.766Z,60
2016-05-15T05:16:05.784Z,70
2016-05-15T05:17:55.790Z,100
2016-05-15T05:18:33.980Z,115
2016-05-15T05:19:08.511Z,120
2016-05-15T05:21:11.063Z,155
2016-05-15T05:21:49.269Z,175
2016-05-15T05:22:23.754Z,180
2016-05-15T05:24:21.977Z,245
2016-05-15T05:24:34.526Z,260
2016-05-15T05:26:31.501Z,285
2016-05-15T05:27:53.128Z,270
2016-05-15T05:29:12.616Z,225
2016-05-15T05:30:05.759Z,220
2016-05-15T05:31:24.324Z,225
2016-05-15T05:32:13.170Z,240
2016-05-15T05:33:22.049Z,250
2016-05-15T05:34:24.645Z,255
2016-05-15T05:35:24.694Z,275
2016-05-15T05:35:53.448Z,285
2016-05-15T05:37:53.421Z,490
2016-05-15T05:38:06.046Z,1090
2016-05-15T05:39:06.158Z,630
2016-05-15T05:40:06.224Z,430
2016-05-15T05:41:18.930Z,645
2016-05-15T05:42:06.057Z,435
2016-05-15T05:44:08.781Z,320
2016-05-15T05:44:40.518Z,270
2016-05-15T05:45:21.346Z,250
2016-05-15T05:48:02.089Z,135
2016-05-15T05:49:33.282Z,100
2016-05-15T05:50:11.501Z,90
2016-05-15T05:50:58.722Z,100
2016-05-15T05:52:48.587Z,130
2016-05-15T05:53:39.496Z,140
2016-05-15T05:54:59.529Z,150
2016-05-15T05:55:31.423Z,150
2016-05-15T05:56:12.220Z,135
2016-05-15T05:58:16.240Z,100
2016-05-15T05:58:54.603Z,75
2016-05-15T06:00:19.433Z,50
2016-05-15T06:01:03.249Z,50
2016-05-15T06:01:51.345Z,55
2016-05-15T06:02:32.207Z,60
2016-05-15T06:04:03.632Z,70
2016-05-15T06:04:38.666Z,75
2016-05-15T06:05:31.887Z,85
2016-05-15T06:06:44.797Z,100
2016-05-15T06:07:51.252Z,110
2016-05-15T06:08:32.270Z,110
2016-05-15T06:09:32.132Z,85
2016-05-15T06:10:32.339Z,100
2016-05-15T06:11:32.185Z,145
2016-05-15T06:12:51.547Z,195
2016-05-15T06:13:41.658Z,225
2016-05-15T06:15:47.680Z,305
2016-05-15T06:16:00.367Z,310
2016-05-15T06:17:00.369Z,365
2016-05-15T06:18:00.483Z,410
2016-05-15T06:19:01.172Z,460
2016-05-15T06:20:13.737Z,1605
2016-05-15T06:21:00.475Z,1685
2016-05-15T06:22:00.477Z,1765
2016-05-15T06:23:01.198Z,1830
2016-05-15T06:24:13.326Z,1920
2016-05-15T06:25:00.345Z,1960
2016-05-15T06:26:00.457Z,1970
2016-05-15T06:27:00.396Z,1910
2016-05-15T06:28:00.415Z,1745
2016-05-15T06:29:13.324Z,685
2016-05-15T06:30:00.608Z,520
2016-05-15T06:31:00.689Z,660
2016-05-15T06:32:00.692Z,755
2016-05-15T06:33:00.601Z,380
2016-05-15T06:34:01.165Z,350
2016-05-15T06:35:00.856Z,375
2016-05-15T06:36:00.734Z,390
2016-05-15T06:37:03.752Z,695
2016-05-15T06:38:00.661Z,350
2016-05-15T06:39:01.913Z,310
2016-05-15T06:40:00.526Z,300
2016-05-15T06:41:00.841Z,345
2016-05-15T06:42:00.890Z,405
2016-05-15T06:43:00.925Z,1340
2016-05-15T06:44:00.958Z,1770
2016-05-15T06:45:07.117Z,1725
2016-05-15T06:46:01.057Z,1745
2016-05-15T06:47:00.858Z,1845
2016-05-15T06:48:20.141Z,1815
2016-05-15T06:49:02.299Z,1825
2016-05-15T06:50:01.413Z,1750
2016-05-15T06:51:00.961Z,1775
2016-05-15T06:52:13.854Z,1865
2016-05-15T06:53:13.982Z,1920
2016-05-15T06:55:17.332Z,1905
2016-05-15T06:55:30.004Z,865
2016-05-15T06:56:30.115Z,1920
2016-05-15T06:57:30.071Z,1465
2016-05-15T06:58:30.168Z,615
2016-05-15T06:59:30.107Z,1725
2016-05-15T07:00:30.017Z,2010
2016-05-15T07:01:30.004Z,880
2016-05-15T07:02:30.023Z,675
2016-05-15T07:03:30.322Z,1210
2016-05-15T07:04:30.887Z,2040
2016-05-15T07:05:49.345Z,1210
2016-05-15T07:06:30.267Z,800
2016-05-15T07:07:56.023Z,345
2016-05-15T07:08:30.367Z,315
2016-05-15T07:09:30.447Z,315
2016-05-15T07:10:30.419Z,260
2016-05-15T07:11:30.358Z,220
2016-05-15T07:12:30.456Z,260
2016-05-15T07:13:30.489Z,310
2016-05-15T07:14:30.632Z,305
2016-05-15T07:15:30.370Z,275
2016-05-15T07:16:33.610Z,270
2016-05-15T07:17:30.438Z,300
2016-05-15T07:18:33.521Z,330
2016-05-15T07:19:30.380Z,355
2016-05-15T07:20:30.664Z,395
2016-05-15T07:21:30.557Z,435
2016-05-15T07:22:33.751Z,490
2016-05-15T07:23:30.579Z,530
2016-05-15T07:24:30.597Z,770
2016-05-15T07:25:30.912Z,890
2016-05-15T07:26:30.665Z,630
2016-05-15T07:27:30.887Z,640
2016-05-15T07:28:30.560Z,660
2016-05-15T07:29:30.907Z,625
2016-05-15T07:30:30.910Z,765
2016-05-15T07:31:30.976Z,1550
2016-05-15T07:32:30.946Z,2065
2016-05-15T07:33:30.840Z,1955
2016-05-15T07:34:31.640Z,1520
2016-05-15T07:35:31.048Z,1610
2016-05-15T07:36:30.722Z,1645
2016-05-15T07:37:30.914Z,1035
2016-05-15T07:38:31.009Z,1015
2016-05-15T07:39:31.142Z,1595
2016-05-15T07:40:31.313Z,1635
2016-05-15T07:41:31.094Z,1320
2016-05-15T07:42:31.030Z,1070
2016-05-15T07:43:31.404Z,1325
2016-05-15T07:44:31.485Z,1420
2016-05-15T07:45:31.331Z,1450
2016-05-15T07:46:31.537Z,1625
2016-05-15T07:47:31.446Z,1440
2016-05-15T07:48:31.605Z,1720
2016-05-15T07:49:33.814Z,1425
2016-05-15T07:50:31.517Z,960
2016-05-15T07:51:31.791Z,1380
2016-05-15T07:52:31.580Z,765
2016-05-15T07:53:31.917Z,475
2016-05-15T07:54:31.814Z,325
2016-05-15T07:55:32.958Z,205
2016-05-15T07:56:32.198Z,185
2016-05-15T07:57:32.030Z,180
2016-05-15T07:58:31.754Z,195
2016-05-15T07:59:32.055Z,230
2016-05-15T08:00:32.340Z,330
2016-05-15T08:01:32.093Z,390
2016-05-15T08:02:32.252Z,400
2016-05-15T08:03:32.069Z,400
2016-05-15T08:04:44.871Z,425
2016-05-15T08:05:32.153Z,505
2016-05-15T08:06:32.281Z,590
2016-05-15T08:07:32.222Z,685
2016-05-15T08:08:32.241Z,800
2016-05-15T08:09:32.024Z,715
2016-05-15T08:10:32.122Z,725
2016-05-15T08:11:32.358Z,695
2016-05-15T08:12:32.204Z,595
2016-05-15T08:13:32.176Z,490
2016-05-15T08:14:32.147Z,450
2016-05-15T08:15:32.229Z,425
2016-05-15T08:16:32.356Z,400
2016-05-15T08:17:32.374Z,390
2016-05-15T08:18:32.237Z,385
2016-05-15T08:19:32.551Z,370
2016-05-15T08:20:32.460Z,385
2016-05-15T08:21:32.448Z,380
2016-05-15T08:22:32.591Z,375
2016-05-15T08:23:32.484Z,380
2016-05-15T08:24:32.659Z,385
2016-05-15T08:25:32.552Z,380
2016-05-15T08:26:32.414Z,380
2016-05-15T08:27:32.417Z,385
2016-05-15T08:28:51.829Z,410
2016-05-15T08:29:32.438Z,405
2016-05-15T08:31:03.958Z,410
2016-05-15T08:31:34.083Z,425
2016-05-15T08:32:32.695Z,445
2016-05-15T08:33:32.745Z,435
2016-05-15T08:34:51.875Z,430
2016-05-15T08:35:32.688Z,415
2016-05-15T08:36:32.457Z,410
2016-05-15T08:37:45.227Z,430
2016-05-15T08:38:32.852Z,405
2016-05-15T08:39:32.825Z,375
2016-05-15T08:40:32.874Z,355
2016-05-15T08:41:32.954Z,345
2016-05-15T08:42:45.632Z,380
2016-05-15T08:43:32.944Z,445
2016-05-15T08:45:35.640Z,615
2016-05-15T08:46:13.843Z,615
2016-05-15T08:46:48.377Z,555
2016-05-15T08:47:48.379Z,455
2016-05-15T08:48:48.398Z,560
2016-05-15T08:49:48.463Z,750
2016-05-15T08:50:48.435Z,795
2016-05-15T08:51:48.468Z,725
2016-05-15T08:52:48.315Z,530
2016-05-15T08:54:01.223Z,465
2016-05-15T08:54:48.398Z,400
2016-05-15T08:56:14.214Z,295
2016-05-15T08:56:49.967Z,210
2016-05-15T08:57:48.578Z,115
2016-05-15T08:58:48.659Z,70
2016-05-15T08:59:48.615Z,60
2016-05-15T09:01:01.352Z,80
2016-05-15T09:01:48.745Z,105
2016-05-15T09:03:19.936Z,170
2016-05-15T09:03:49.813Z,200
2016-05-15T09:05:19.910Z,240
2016-05-15T09:05:48.772Z,235
2016-05-15T09:06:48.602Z,245
2016-05-15T09:08:01.589Z,255
2016-05-15T09:08:48.857Z,305
2016-05-15T09:10:18.485Z,470
2016-05-15T09:10:48.848Z,585
2016-05-15T09:12:51.430Z,670
2016-05-15T09:13:29.649Z,660
2016-05-15T09:14:03.809Z,650
2016-05-15T09:15:35.438Z,440
2016-05-15T09:16:03.876Z,405
2016-05-15T09:17:04.051Z,355
2016-05-15T09:18:04.211Z,350
2016-05-15T09:19:04.229Z,365
2016-05-15T09:20:05.199Z,340
2016-05-15T09:21:04.109Z,270
2016-05-15T09:22:04.173Z,175
2016-05-15T09:23:04.318Z,135
2016-05-15T09:24:04.257Z,125
2016-05-15T09:25:04.213Z,125
2016-05-15T09:26:04.388Z,135
2016-05-15T09:27:04.234Z,150
2016-05-15T09:28:04.425Z,200
2016-05-15T09:29:05.209Z,235
2016-05-15T09:30:04.305Z,250
2016-05-15T09:31:04.573Z,275
2016-05-15T09:32:04.357Z,310
2016-05-15T09:33:17.078Z,355
2016-05-15T09:34:04.534Z,405
2016-05-15T09:35:04.287Z,465
2016-05-15T09:36:04.414Z,545
2016-05-15T09:37:04.605Z,585
2016-05-15T09:38:04.467Z,685
2016-05-15T09:39:04.642Z,540
2016-05-15T09:40:17.410Z,510
2016-05-15T09:41:04.631Z,555
2016-05-15T09:42:04.666Z,575
2016-05-15T09:43:17.152Z,620
2016-05-15T09:44:07.686Z,640
2016-05-15T09:45:04.751Z,685
2016-05-15T09:46:04.833Z,710
2016-05-15T09:47:04.804Z,695
2016-05-15T09:48:04.900Z,620
2016-05-15T09:49:04.684Z,500
2016-05-15T09:50:17.812Z,345
2016-05-15T09:51:04.737Z,310
2016-05-15T09:52:04.896Z,315
2016-05-15T09:53:05.023Z,345
2016-05-15T09:54:04.932Z,375
2016-05-15T09:55:05.059Z,395
2016-05-15T09:56:05.000Z,395
2016-05-15T09:57:07.893Z,405
2016-05-15T09:58:05.020Z,420
2016-05-15T09:59:05.055Z,445
2016-05-15T10:00:04.932Z,480
2016-05-15T10:01:05.123Z,490
2016-05-15T10:02:04.953Z,505
2016-05-15T10:03:24.425Z,510
2016-05-15T10:04:04.990Z,500
2016-05-15T10:05:24.227Z,485
2016-05-15T10:06:05.105Z,475
2016-05-15T10:08:07.783Z,430
2016-05-15T10:08:46.144Z,410
2016-05-15T10:09:20.503Z,400
2016-05-15T10:10:20.349Z,380
2016-05-15T10:11:20.555Z,385
2016-05-15T10:12:20.575Z,385
2016-05-15T10:13:20.483Z,390
2016-05-15T10:14:20.688Z,435
2016-05-15T10:15:20.614Z,495
2016-05-15T10:16:20.616Z,530
2016-05-15T10:17:20.635Z,530
2016-05-15T10:18:33.309Z,510
2016-05-15T10:19:20.906Z,490
2016-05-15T10:20:46.255Z,500
2016-05-15T10:21:20.568Z,505
2016-05-15T10:23:23.306Z,505
2016-05-15T10:23:35.868Z,490
2016-05-15T10:24:35.935Z,460
2016-05-15T10:25:36.046Z,460
2016-05-15T10:26:35.924Z,455
2016-05-15T10:27:36.067Z,465
2016-05-15T10:28:36.179Z,480
2016-05-15T10:29:36.151Z,515
2016-05-15T10:30:36.170Z,555
2016-05-15T10:31:36.500Z,575
2016-05-15T10:32:36.190Z,595
2016-05-15T10:33:36.193Z,630
2016-05-15T10:34:36.259Z,630
2016-05-15T10:35:36.105Z,620
2016-05-15T10:36:36.247Z,585
2016-05-15T10:37:36.267Z,570
2016-05-15T10:38:36.129Z,575
2016-05-15T10:39:49.164Z,600
2016-05-15T10:40:36.196Z,585
2016-05-15T10:41:49.077Z,555
2016-05-15T10:42:36.389Z,530
2016-05-15T10:43:36.470Z,495
2016-05-15T10:44:36.425Z,465
2016-05-15T10:45:36.710Z,450
2016-05-15T10:46:36.322Z,450
2016-05-15T10:47:36.372Z,450
2016-05-15T10:48:49.346Z,485
2016-05-15T10:49:40.160Z,525
2016-05-15T10:50:36.426Z,560
2016-05-15T10:51:42.963Z,605
2016-05-15T10:52:36.713Z,625
2016-05-15T10:53:36.606Z,605
2016-05-15T10:54:36.656Z,620
2016-05-15T10:55:36.658Z,625
2016-05-15T10:56:36.583Z,595
2016-05-15T10:57:36.398Z,435
2016-05-15T10:58:36.745Z,210
2016-05-15T10:59:36.606Z,165
2016-05-15T11:00:39.956Z,155
2016-05-15T11:01:36.487Z,170
2016-05-15T11:02:36.568Z,185
2016-05-15T11:03:36.711Z,185
2016-05-15T11:04:37.340Z,195
2016-05-15T11:05:49.626Z,205
2016-05-15T11:06:49.362Z,215
2016-05-15T11:07:36.956Z,220
2016-05-15T11:08:36.990Z,240
2016-05-15T11:09:36.992Z,265
2016-05-15T11:10:36.856Z,265
2016-05-15T11:11:49.751Z,320
2016-05-15T11:12:36.876Z,295
2016-05-15T11:13:56.163Z,275
2016-05-15T11:14:37.022Z,300
2016-05-15T11:15:37.102Z,375
2016-05-15T11:16:56.327Z,465
2016-05-15T11:17:37.046Z,490
2016-05-15T11:18:37.330Z,510
2016-05-15T11:19:37.644Z,480
2016-05-15T11:20:37.335Z,480
2016-05-15T11:21:37.072Z,450
2016-05-15T11:22:37.356Z,385
2016-05-15T11:23:37.327Z,380
2016-05-15T11:24:38.707Z,390
2016-05-15T11:25:37.379Z,410
2016-05-15T11:26:37.195Z,445
2016-05-15T11:27:37.385Z,475
2016-05-15T11:28:37.356Z,500
2016-05-15T11:29:37.343Z,580
2016-05-15T11:30:37.362Z,555
2016-05-15T11:31:37.552Z,470
2016-05-15T11:32:37.383Z,380
2016-05-15T11:33:37.417Z,330
2016-05-15T11:34:37.404Z,290
2016-05-15T11:35:37.048Z,240
2016-05-15T11:36:37.394Z,205
2016-05-15T11:37:37.397Z,170
2016-05-15T11:38:37.477Z,170
2016-05-15T11:39:37.464Z,190
2016-05-15T11:40:37.686Z,220
2016-05-15T11:41:37.501Z,260
2016-05-15T11:42:38.081Z,310
2016-05-15T11:43:50.399Z,335
2016-05-15T11:44:37.555Z,335
2016-05-15T11:45:37.575Z,315
2016-05-15T11:46:37.780Z,315
2016-05-15T11:47:37.752Z,300
2016-05-15T11:48:37.676Z,295
2016-05-15T11:49:37.694Z,290
2016-05-15T11:50:40.888Z,295
2016-05-15T11:51:50.546Z,300
2016-05-15T11:52:37.890Z,315
2016-05-15T11:53:50.770Z,320
2016-05-15T11:54:37.988Z,325
2016-05-15T11:55:37.991Z,340
2016-05-15T11:56:38.322Z,360
2016-05-15T11:57:38.013Z,390
2016-05-15T11:58:57.065Z,450
2016-05-15T11:59:41.098Z,495
2016-05-15T12:01:09.320Z,635
2016-05-15T12:01:57.370Z,650
2016-05-15T12:03:09.388Z,615
2016-05-15T12:03:38.107Z,545
2016-05-15T12:04:38.626Z,355
2016-05-15T12:05:38.159Z,235
2016-05-15T12:06:38.225Z,195
2016-05-15T12:07:38.039Z,175
2016-05-15T12:08:38.261Z,145
2016-05-15T12:09:38.233Z,130
2016-05-15T12:10:38.111Z,95
2016-05-15T12:11:38.113Z,85
2016-05-15T12:12:50.900Z,85
2016-05-15T12:13:38.181Z,90
2016-05-15T12:15:04.045Z,125
2016-05-15T12:15:38.295Z,155
2016-05-15T12:16:38.252Z,215
2016-05-15T12:17:38.300Z,285
2016-05-15T12:18:38.460Z,345
2016-05-15T12:19:39.180Z,390
2016-05-15T12:20:38.465Z,415
2016-05-15T12:21:38.516Z,440
2016-05-15T12:22:38.361Z,460
2016-05-15T12:23:38.552Z,475
2016-05-15T12:24:38.569Z,465
2016-05-15T12:25:38.572Z,480
2016-05-15T12:26:38.434Z,525
2016-05-15T12:27:38.594Z,535
2016-05-15T12:28:38.627Z,510
2016-05-15T12:29:38.505Z,475
2016-05-15T12:30:38.523Z,405
2016-05-15T12:31:38.385Z,315
2016-05-15T12:32:38.560Z,305
2016-05-15T12:33:38.579Z,335
2016-05-15T12:34:38.706Z,390
2016-05-15T12:35:38.303Z,435
2016-05-15T12:36:38.601Z,460
2016-05-15T12:37:39.136Z,465
2016-05-15T12:38:40.220Z,465
2016-05-15T12:39:41.770Z,460
2016-05-15T12:40:38.863Z,460
2016-05-15T12:41:38.787Z,410
2016-05-15T12:42:38.900Z,335
2016-05-15T12:43:38.870Z,305
2016-05-15T12:44:38.952Z,290
2016-05-15T12:45:38.985Z,290
2016-05-15T12:46:41.741Z,275
2016-05-15T12:47:38.866Z,270
2016-05-15T12:48:39.025Z,275
2016-05-15T12:49:39.669Z,280
2016-05-15T12:50:38.889Z,300
2016-05-15T12:51:39.080Z,335
2016-05-15T12:52:39.285Z,390
2016-05-15T12:53:39.101Z,440
2016-05-15T12:54:39.213Z,435
2016-05-15T12:55:38.857Z,360
2016-05-15T12:56:39.343Z,345
2016-05-15T12:57:39.143Z,355
2016-05-15T12:58:39.240Z,420
2016-05-15T12:59:39.227Z,495
2016-05-15T13:00:39.088Z,520
2016-05-15T13:01:39.154Z,500
2016-05-15T13:02:39.328Z,465
2016-05-15T13:03:58.380Z,410
2016-05-15T13:04:40.884Z,395
2016-05-15T13:05:39.321Z,385
2016-05-15T13:06:39.214Z,415
2016-05-15T13:07:39.420Z,425
2016-05-15T13:08:39.359Z,410
2016-05-15T13:09:39.425Z,395
2016-05-15T13:10:41.086Z,365
2016-05-15T13:11:39.742Z,345
2016-05-15T13:12:39.340Z,325
2016-05-15T13:13:39.514Z,325
2016-05-15T13:14:39.517Z,345
2016-05-15T13:15:41.006Z,345
2016-05-15T13:16:39.819Z,350
2016-05-15T13:17:39.728Z,380
2016-05-15T13:18:39.684Z,390
2016-05-15T13:19:39.811Z,385
2016-05-15T13:20:39.799Z,380
2016-05-15T13:21:39.816Z,375
2016-05-15T13:22:40.147Z,375
2016-05-15T13:23:39.838Z,370
2016-05-15T13:24:40.121Z,375
2016-05-15T13:25:39.469Z,370
2016-05-15T13:26:39.908Z,365
2016-05-15T13:27:41.070Z,350
2016-05-15T13:28:39.710Z,330
2016-05-15T13:29:39.698Z,320
2016-05-15T13:30:39.731Z,320
2016-05-15T13:31:39.891Z,340
2016-05-15T13:32:39.752Z,345
2016-05-15T13:33:40.162Z,350
2016-05-15T13:34:39.929Z,350
2016-05-15T13:35:40.026Z,340
2016-05-15T13:36:39.842Z,375
2016-05-15T13:37:39.969Z,400
2016-05-15T13:38:40.018Z,410
2016-05-15T13:39:40.100Z,425
2016-05-15T13:40:40.071Z,445
2016-05-15T13:41:39.917Z,460
2016-05-15T13:42:39.920Z,510
2016-05-15T13:43:39.969Z,555
2016-05-15T13:44:40.239Z,540
2016-05-15T13:45:40.147Z,525
2016-05-15T13:46:39.962Z,500
2016-05-15T13:47:40.215Z,515
2016-05-15T13:48:40.249Z,520
2016-05-15T13:49:40.111Z,520
2016-05-15T13:50:43.319Z,520
2016-05-15T13:51:40.272Z,510
2016-05-15T13:52:40.306Z,505
2016-05-15T13:53:40.418Z,480
2016-05-15T13:54:40.327Z,465
2016-05-15T13:55:43.441Z,450
2016-05-15T13:56:40.395Z,440
2016-05-15T13:57:40.148Z,420
2016-05-15T13:58:40.432Z,405
2016-05-15T13:59:40.279Z,390
2016-05-15T14:00:41.672Z,380
2016-05-15T14:01:40.565Z,370
2016-05-15T14:02:40.505Z,365
2016-05-15T14:03:40.507Z,360
2016-05-15T14:04:40.823Z,355
2016-05-15T14:05:40.575Z,360
2016-05-15T14:06:40.594Z,365
2016-05-15T14:07:53.334Z,365
2016-05-15T14:08:40.474Z,365
2016-05-15T14:09:40.509Z,360
2016-05-15T14:10:40.683Z,345
2016-05-15T14:11:40.686Z,335
2016-05-15T14:12:40.735Z,335
2016-05-15T14:14:31.084Z,305
2016-05-15T14:14:56.556Z,300
2016-05-15T14:15:43.809Z,290
2016-05-15T14:17:09.514Z,270
2016-05-15T14:17:43.986Z,270
2016-05-15T14:18:43.894Z,260
2016-05-15T14:19:44.053Z,255
2016-05-15T14:20:43.915Z,250
2016-05-15T14:21:43.933Z,255
2016-05-15T14:22:43.984Z,260
2016-05-15T14:23:43.955Z,285
2016-05-15T14:24:43.989Z,280
2016-05-15T14:25:44.038Z,300